sensor_id;sensor_type;location;lat;lon;timestamp;P1;durP1;ratioP1;P2;durP2;ratioP2
74375;SDS011;62812;55.188;61.302;2022-09-12T00:01:52;5.07;;;1.20;;
74375;SDS011;62812;55.188;61.302;2022-09-12T00:04:19;4.93;;;1.55;;
74375;SDS011;62812;55.188;61.302;2022-09-12T00:06:48;4.45;;;1.30;;
74375;SDS011;62812;55.188;61.302;2022-09-12T00:09:14;4.35;;;1.13;;
74375;SDS011;62812;55.188;61.302;2022-09-12T00:11:43;5.07;;;1.08;;
74375;SDS011;62812;55.188;61.302;2022-09-12T00:14:13;4.88;;;1.35;;
74375;SDS011;62812;55.188;61.302;2022-09-12T00:19:07;5.30;;;1.50;;
74375;SDS011;62812;55.188;61.302;2022-09-12T00:21:36;4.53;;;1.35;;
74375;SDS011;62812;55.188;61.302;2022-09-12T00:24:04;3.85;;;1.15;;
74375;SDS011;62812;55.188;61.302;2022-09-12T00:26:31;4.45;;;1.20;;
74375;SDS011;62812;55.188;61.302;2022-09-12T00:28:59;4.72;;;1.45;;
74375;SDS011;62812;55.188;61.302;2022-09-12T00:31:26;4.05;;;1.35;;
74375;SDS011;62812;55.188;61.302;2022-09-12T00:33:54;4.25;;;1.65;;
74375;SDS011;62812;55.188;61.302;2022-09-12T00:36:22;6.05;;;1.30;;
74375;SDS011;62812;55.188;61.302;2022-09-12T00:38:50;7.05;;;1.92;;
74375;SDS011;62812;55.188;61.302;2022-09-12T00:41:18;5.13;;;1.40;;
74375;SDS011;62812;55.188;61.302;2022-09-12T00:43:46;7.22;;;2.10;;
74375;SDS011;62812;55.188;61.302;2022-09-12T00:46:35;4.50;;;1.42;;
74375;SDS011;62812;55.188;61.302;2022-09-12T00:49:08;6.10;;;2.53;;
74375;SDS011;62812;55.188;61.302;2022-09-12T00:51:39;6.75;;;1.83;;
74375;SDS011;62812;55.188;61.302;2022-09-12T00:56:37;5.13;;;1.40;;
74375;SDS011;62812;55.188;61.302;2022-09-12T00:59:07;5.53;;;1.50;;
74375;SDS011;62812;55.188;61.302;2022-09-12T01:01:43;4.00;;;1.20;;
74375;SDS011;62812;55.188;61.302;2022-09-12T01:04:12;4.80;;;1.30;;
74375;SDS011;62812;55.188;61.302;2022-09-12T01:06:40;4.85;;;1.50;;
74375;SDS011;62812;55.188;61.302;2022-09-12T01:09:08;4.10;;;1.50;;
74375;SDS011;62812;55.188;61.302;2022-09-12T01:11:38;4.97;;;1.63;;
74375;SDS011;62812;55.188;61.302;2022-09-12T01:14:06;4.53;;;1.70;;
74375;SDS011;62812;55.188;61.302;2022-09-12T01:16:33;4.20;;;1.63;;
74375;SDS011;62812;55.188;61.302;2022-09-12T01:19:05;4.43;;;1.30;;
74375;SDS011;62812;55.188;61.302;2022-09-12T01:21:47;7.47;;;2.10;;
74375;SDS011;62812;55.188;61.302;2022-09-12T01:30:40;4.13;;;1.30;;
74375;SDS011;62812;55.188;61.302;2022-09-12T01:35:51;3.67;;;1.30;;
74375;SDS011;62812;55.188;61.302;2022-09-12T01:38:28;11.13;;;2.72;;
74375;SDS011;62812;55.188;61.302;2022-09-12T01:41:01;5.25;;;1.67;;
74375;SDS011;62812;55.188;61.302;2022-09-12T01:43:36;4.80;;;1.40;;
74375;SDS011;62812;55.188;61.302;2022-09-12T01:46:14;5.25;;;1.20;;
74375;SDS011;62812;55.188;61.302;2022-09-12T01:48:44;4.95;;;1.33;;
74375;SDS011;62812;55.188;61.302;2022-09-12T01:51:17;5.55;;;1.40;;
74375;SDS011;62812;55.188;61.302;2022-09-12T01:53:50;6.65;;;1.83;;
74375;SDS011;62812;55.188;61.302;2022-09-12T01:56:21;9.27;;;2.20;;
74375;SDS011;62812;55.188;61.302;2022-09-12T01:58:52;5.22;;;1.73;;
74375;SDS011;62812;55.188;61.302;2022-09-12T02:01:25;3.90;;;1.40;;
74375;SDS011;62812;55.188;61.302;2022-09-12T02:03:55;4.57;;;1.58;;
74375;SDS011;62812;55.188;61.302;2022-09-12T02:06:27;4.38;;;1.23;;
74375;SDS011;62812;55.188;61.302;2022-09-12T02:08:57;4.38;;;1.45;;
74375;SDS011;62812;55.188;61.302;2022-09-12T02:11:28;6.88;;;1.75;;
74375;SDS011;62812;55.188;61.302;2022-09-12T02:14:01;8.25;;;1.67;;
74375;SDS011;62812;55.188;61.302;2022-09-12T02:16:35;5.45;;;1.80;;
74375;SDS011;62812;55.188;61.302;2022-09-12T02:19:07;4.55;;;1.30;;
74375;SDS011;62812;55.188;61.302;2022-09-12T02:21:37;3.70;;;1.55;;
74375;SDS011;62812;55.188;61.302;2022-09-12T02:24:11;4.25;;;1.02;;
74375;SDS011;62812;55.188;61.302;2022-09-12T02:26:46;4.25;;;1.10;;
74375;SDS011;62812;55.188;61.302;2022-09-12T02:29:17;5.38;;;1.58;;
74375;SDS011;62812;55.188;61.302;2022-09-12T02:31:48;5.03;;;1.02;;
74375;SDS011;62812;55.188;61.302;2022-09-12T02:34:24;3.55;;;1.30;;
74375;SDS011;62812;55.188;61.302;2022-09-12T02:37:00;4.78;;;1.33;;
74375;SDS011;62812;55.188;61.302;2022-09-12T02:39:33;5.25;;;1.40;;
74375;SDS011;62812;55.188;61.302;2022-09-12T02:42:00;3.17;;;1.00;;
74375;SDS011;62812;55.188;61.302;2022-09-12T02:44:32;7.20;;;1.92;;
74375;SDS011;62812;55.188;61.302;2022-09-12T02:47:02;9.82;;;3.25;;
74375;SDS011;62812;55.188;61.302;2022-09-12T02:49:32;8.38;;;1.48;;
74375;SDS011;62812;55.188;61.302;2022-09-12T02:52:01;6.35;;;1.40;;
74375;SDS011;62812;55.188;61.302;2022-09-12T02:54:32;9.32;;;1.30;;
74375;SDS011;62812;55.188;61.302;2022-09-12T02:57:16;5.35;;;1.30;;
74375;SDS011;62812;55.188;61.302;2022-09-12T02:59:54;4.47;;;1.00;;
74375;SDS011;62812;55.188;61.302;2022-09-12T03:02:37;9.32;;;1.33;;
74375;SDS011;62812;55.188;61.302;2022-09-12T03:05:21;4.63;;;1.15;;
74375;SDS011;62812;55.188;61.302;2022-09-12T03:11:00;5.72;;;1.52;;
74375;SDS011;62812;55.188;61.302;2022-09-12T03:13:56;5.38;;;1.80;;
74375;SDS011;62812;55.188;61.302;2022-09-12T03:16:48;7.18;;;1.90;;
74375;SDS011;62812;55.188;61.302;2022-09-12T03:19:32;6.55;;;1.73;;
74375;SDS011;62812;55.188;61.302;2022-09-12T03:22:07;5.95;;;1.98;;
74375;SDS011;62812;55.188;61.302;2022-09-12T03:24:44;6.80;;;2.13;;
74375;SDS011;62812;55.188;61.302;2022-09-12T03:27:24;5.53;;;1.63;;
74375;SDS011;62812;55.188;61.302;2022-09-12T03:30:12;9.63;;;2.55;;
74375;SDS011;62812;55.188;61.302;2022-09-12T03:32:39;6.82;;;2.17;;
74375;SDS011;62812;55.188;61.302;2022-09-12T03:35:13;6.60;;;2.20;;
74375;SDS011;62812;55.188;61.302;2022-09-12T03:37:49;6.45;;;2.10;;
74375;SDS011;62812;55.188;61.302;2022-09-12T03:40:17;7.38;;;2.05;;
74375;SDS011;62812;55.188;61.302;2022-09-12T03:42:44;7.15;;;1.95;;
74375;SDS011;62812;55.188;61.302;2022-09-12T03:45:11;9.07;;;1.75;;
74375;SDS011;62812;55.188;61.302;2022-09-12T03:47:38;8.82;;;1.90;;
74375;SDS011;62812;55.188;61.302;2022-09-12T03:50:06;8.07;;;2.10;;
74375;SDS011;62812;55.188;61.302;2022-09-12T03:52:35;8.70;;;2.97;;
74375;SDS011;62812;55.188;61.302;2022-09-12T03:55:08;5.72;;;2.08;;
74375;SDS011;62812;55.188;61.302;2022-09-12T03:57:39;10.02;;;2.10;;
74375;SDS011;62812;55.188;61.302;2022-09-12T04:00:06;7.18;;;2.22;;
74375;SDS011;62812;55.188;61.302;2022-09-12T04:02:33;9.70;;;2.30;;
74375;SDS011;62812;55.188;61.302;2022-09-12T04:05:01;5.70;;;1.70;;
74375;SDS011;62812;55.188;61.302;2022-09-12T04:07:28;8.40;;;2.15;;
74375;SDS011;62812;55.188;61.302;2022-09-12T04:09:57;5.50;;;1.67;;
74375;SDS011;62812;55.188;61.302;2022-09-12T04:12:23;5.60;;;1.70;;
74375;SDS011;62812;55.188;61.302;2022-09-12T04:14:50;5.38;;;1.92;;
74375;SDS011;62812;55.188;61.302;2022-09-12T04:17:17;5.93;;;1.75;;
74375;SDS011;62812;55.188;61.302;2022-09-12T04:19:49;5.38;;;1.65;;
74375;SDS011;62812;55.188;61.302;2022-09-12T04:22:16;5.70;;;1.40;;
74375;SDS011;62812;55.188;61.302;2022-09-12T04:27:15;6.35;;;1.38;;
74375;SDS011;62812;55.188;61.302;2022-09-12T04:29:44;4.25;;;1.35;;
74375;SDS011;62812;55.188;61.302;2022-09-12T04:32:12;4.30;;;1.30;;
74375;SDS011;62812;55.188;61.302;2022-09-12T04:34:40;5.40;;;1.50;;
74375;SDS011;62812;55.188;61.302;2022-09-12T04:37:10;3.88;;;1.25;;
74375;SDS011;62812;55.188;61.302;2022-09-12T04:39:50;4.75;;;1.20;;
74375;SDS011;62812;55.188;61.302;2022-09-12T04:42:36;5.15;;;1.30;;
74375;SDS011;62812;55.188;61.302;2022-09-12T04:45:03;3.95;;;1.20;;
74375;SDS011;62812;55.188;61.302;2022-09-12T04:47:34;4.90;;;1.52;;
74375;SDS011;62812;55.188;61.302;2022-09-12T04:50:07;4.30;;;1.20;;
74375;SDS011;62812;55.188;61.302;2022-09-12T04:52:37;4.13;;;1.40;;
74375;SDS011;62812;55.188;61.302;2022-09-12T04:55:08;4.43;;;1.30;;
74375;SDS011;62812;55.188;61.302;2022-09-12T04:58:05;4.65;;;1.58;;
74375;SDS011;62812;55.188;61.302;2022-09-12T05:20:33;5.20;;;1.40;;
74375;SDS011;62812;55.188;61.302;2022-09-12T05:23:00;4.05;;;1.30;;
74375;SDS011;62812;55.188;61.302;2022-09-12T05:25:29;6.25;;;1.73;;
74375;SDS011;62812;55.188;61.302;2022-09-12T05:29:45;4.60;;;1.52;;
74375;SDS011;62812;55.188;61.302;2022-09-12T05:32:00;4.82;;;1.40;;
74375;SDS011;62812;55.188;61.302;2022-09-12T05:34:35;5.97;;;1.88;;
74375;SDS011;62812;55.188;61.302;2022-09-12T05:38:41;4.75;;;1.30;;
74375;SDS011;62812;55.188;61.302;2022-09-12T05:41:11;5.07;;;1.30;;
74375;SDS011;62812;55.188;61.302;2022-09-12T05:43:44;6.90;;;1.48;;
74375;SDS011;62812;55.188;61.302;2022-09-12T05:46:28;6.72;;;1.58;;
74375;SDS011;62812;55.188;61.302;2022-09-12T05:49:09;4.30;;;1.45;;
74375;SDS011;62812;55.188;61.302;2022-09-12T05:51:44;5.57;;;1.60;;
74375;SDS011;62812;55.188;61.302;2022-09-12T05:54:29;4.88;;;1.42;;
74375;SDS011;62812;55.188;61.302;2022-09-12T05:57:12;4.40;;;1.30;;
74375;SDS011;62812;55.188;61.302;2022-09-12T06:00:47;9.43;;;1.65;;
74375;SDS011;62812;55.188;61.302;2022-09-12T06:03:24;5.20;;;1.25;;
74375;SDS011;62812;55.188;61.302;2022-09-12T06:06:11;11.57;;;1.52;;
74375;SDS011;62812;55.188;61.302;2022-09-12T06:11:30;6.13;;;1.52;;
74375;SDS011;62812;55.188;61.302;2022-09-12T06:14:32;6.00;;;1.38;;
74375;SDS011;62812;55.188;61.302;2022-09-12T06:17:14;7.15;;;1.67;;
74375;SDS011;62812;55.188;61.302;2022-09-12T06:20:20;6.20;;;1.33;;
74375;SDS011;62812;55.188;61.302;2022-09-12T06:23:12;5.90;;;1.35;;
74375;SDS011;62812;55.188;61.302;2022-09-12T06:32:45;11.60;;;2.17;;
74375;SDS011;62812;55.188;61.302;2022-09-12T06:35:29;4.38;;;1.48;;
74375;SDS011;62812;55.188;61.302;2022-09-12T06:38:15;7.20;;;1.40;;
74375;SDS011;62812;55.188;61.302;2022-09-12T06:44:03;6.85;;;1.63;;
74375;SDS011;62812;55.188;61.302;2022-09-12T06:46:39;9.13;;;1.80;;
74375;SDS011;62812;55.188;61.302;2022-09-12T06:49:13;6.15;;;2.55;;
74375;SDS011;62812;55.188;61.302;2022-09-12T06:52:03;6.78;;;2.13;;
74375;SDS011;62812;55.188;61.302;2022-09-12T06:54:52;5.55;;;1.63;;
74375;SDS011;62812;55.188;61.302;2022-09-12T07:00:06;6.13;;;1.90;;
74375;SDS011;62812;55.188;61.302;2022-09-12T07:02:38;16.73;;;1.63;;
74375;SDS011;62812;55.188;61.302;2022-09-12T07:05:40;6.70;;;1.20;;
74375;SDS011;62812;55.188;61.302;2022-09-12T07:08:10;3.92;;;1.13;;
74375;SDS011;62812;55.188;61.302;2022-09-12T07:10:43;11.73;;;1.50;;
74375;SDS011;62812;55.188;61.302;2022-09-12T07:17:12;3.33;;;1.10;;
74375;SDS011;62812;55.188;61.302;2022-09-12T07:19:42;5.32;;;1.05;;
74375;SDS011;62812;55.188;61.302;2022-09-12T07:22:21;4.35;;;1.00;;
74375;SDS011;62812;55.188;61.302;2022-09-12T07:24:51;2.80;;;0.85;;
74375;SDS011;62812;55.188;61.302;2022-09-12T07:30:24;5.60;;;1.00;;
74375;SDS011;62812;55.188;61.302;2022-09-12T07:36:21;4.72;;;0.95;;
74375;SDS011;62812;55.188;61.302;2022-09-12T07:39:38;3.88;;;0.75;;
74375;SDS011;62812;55.188;61.302;2022-09-12T07:43:03;2.88;;;0.73;;
74375;SDS011;62812;55.188;61.302;2022-09-12T07:45:53;4.07;;;1.30;;
74375;SDS011;62812;55.188;61.302;2022-09-12T07:48:27;4.18;;;0.80;;
74375;SDS011;62812;55.188;61.302;2022-09-12T07:51:26;3.97;;;0.93;;
74375;SDS011;62812;55.188;61.302;2022-09-12T07:54:01;6.28;;;1.00;;
74375;SDS011;62812;55.188;61.302;2022-09-12T08:02:27;4.28;;;1.40;;
74375;SDS011;62812;55.188;61.302;2022-09-12T08:05:20;4.45;;;1.45;;
74375;SDS011;62812;55.188;61.302;2022-09-12T08:12:52;3.50;;;1.20;;
74375;SDS011;62812;55.188;61.302;2022-09-12T08:15:21;8.80;;;1.67;;
74375;SDS011;62812;55.188;61.302;2022-09-12T08:18:45;3.00;;;0.95;;
74375;SDS011;62812;55.188;61.302;2022-09-12T08:21:21;5.07;;;1.30;;
74375;SDS011;62812;55.188;61.302;2022-09-12T08:23:50;3.92;;;1.15;;
74375;SDS011;62812;55.188;61.302;2022-09-12T08:26:39;2.60;;;0.95;;
74375;SDS011;62812;55.188;61.302;2022-09-12T08:30:38;5.10;;;1.90;;
74375;SDS011;62812;55.188;61.302;2022-09-12T08:32:32;3.95;;;1.10;;
74375;SDS011;62812;55.188;61.302;2022-09-12T08:35:09;4.70;;;2.00;;
74375;SDS011;62812;55.188;61.302;2022-09-12T08:37:37;5.28;;;1.20;;
74375;SDS011;62812;55.188;61.302;2022-09-12T08:40:05;3.70;;;1.10;;
74375;SDS011;62812;55.188;61.302;2022-09-12T08:43:44;5.22;;;1.60;;
74375;SDS011;62812;55.188;61.302;2022-09-12T08:47:03;9.18;;;3.20;;
74375;SDS011;62812;55.188;61.302;2022-09-12T08:50:01;6.00;;;1.73;;
74375;SDS011;62812;55.188;61.302;2022-09-12T08:53:19;3.05;;;1.10;;
74375;SDS011;62812;55.188;61.302;2022-09-12T08:56:17;5.97;;;1.10;;
74375;SDS011;62812;55.188;61.302;2022-09-12T08:59:13;4.18;;;1.30;;
74375;SDS011;62812;55.188;61.302;2022-09-12T09:05:28;4.80;;;1.00;;
74375;SDS011;62812;55.188;61.302;2022-09-12T09:11:47;3.38;;;0.80;;
74375;SDS011;62812;55.188;61.302;2022-09-12T09:14:44;3.00;;;0.80;;
74375;SDS011;62812;55.188;61.302;2022-09-12T09:18:09;2.35;;;0.80;;
74375;SDS011;62812;55.188;61.302;2022-09-12T09:20:37;3.92;;;1.00;;
74375;SDS011;62812;55.188;61.302;2022-09-12T09:23:10;3.25;;;0.80;;
74375;SDS011;62812;55.188;61.302;2022-09-12T09:33:48;2.72;;;0.65;;
74375;SDS011;62812;55.188;61.302;2022-09-12T09:40:13;2.85;;;0.60;;
74375;SDS011;62812;55.188;61.302;2022-09-12T09:47:39;2.20;;;0.68;;
74375;SDS011;62812;55.188;61.302;2022-09-12T09:50:15;3.35;;;0.70;;
74375;SDS011;62812;55.188;61.302;2022-09-12T09:52:48;2.53;;;0.90;;
74375;SDS011;62812;55.188;61.302;2022-09-12T09:55:32;2.35;;;0.73;;
74375;SDS011;62812;55.188;61.302;2022-09-12T09:58:05;3.42;;;1.02;;
74375;SDS011;62812;55.188;61.302;2022-09-12T10:04:09;3.65;;;1.30;;
74375;SDS011;62812;55.188;61.302;2022-09-12T10:06:47;6.50;;;1.23;;
74375;SDS011;62812;55.188;61.302;2022-09-12T10:09:24;4.50;;;1.20;;
74375;SDS011;62812;55.188;61.302;2022-09-12T10:14:58;4.63;;;0.95;;
74375;SDS011;62812;55.188;61.302;2022-09-12T10:17:45;5.88;;;1.90;;
74375;SDS011;62812;55.188;61.302;2022-09-12T10:20:47;4.03;;;1.15;;
74375;SDS011;62812;55.188;61.302;2022-09-12T10:23:41;4.82;;;0.80;;
74375;SDS011;62812;55.188;61.302;2022-09-12T10:26:40;3.88;;;1.20;;
74375;SDS011;62812;55.188;61.302;2022-09-12T10:29:16;3.80;;;1.13;;
74375;SDS011;62812;55.188;61.302;2022-09-12T10:32:02;4.03;;;1.20;;
74375;SDS011;62812;55.188;61.302;2022-09-12T10:35:00;4.40;;;0.82;;
74375;SDS011;62812;55.188;61.302;2022-09-12T10:37:55;5.13;;;1.38;;
74375;SDS011;62812;55.188;61.302;2022-09-12T10:41:11;3.05;;;0.80;;
74375;SDS011;62812;55.188;61.302;2022-09-12T10:43:45;2.70;;;0.90;;
74375;SDS011;62812;55.188;61.302;2022-09-12T10:46:20;2.95;;;1.00;;
74375;SDS011;62812;55.188;61.302;2022-09-12T10:49:11;4.93;;;1.50;;
74375;SDS011;62812;55.188;61.302;2022-09-12T10:52:29;3.60;;;1.20;;
74375;SDS011;62812;55.188;61.302;2022-09-12T10:55:04;3.03;;;0.90;;
74375;SDS011;62812;55.188;61.302;2022-09-12T11:03:58;2.40;;;0.90;;
74375;SDS011;62812;55.188;61.302;2022-09-12T11:07:34;1.58;;;0.63;;
74375;SDS011;62812;55.188;61.302;2022-09-12T11:12:57;9.57;;;2.00;;
74375;SDS011;62812;55.188;61.302;2022-09-12T11:15:47;6.13;;;1.27;;
74375;SDS011;62812;55.188;61.302;2022-09-12T11:25:26;3.90;;;1.08;;
74375;SDS011;62812;55.188;61.302;2022-09-12T11:31:06;3.30;;;1.20;;
74375;SDS011;62812;55.188;61.302;2022-09-12T11:33:50;4.13;;;1.02;;
74375;SDS011;62812;55.188;61.302;2022-09-12T11:36:27;3.38;;;1.27;;
74375;SDS011;62812;55.188;61.302;2022-09-12T11:39:16;3.25;;;1.50;;
74375;SDS011;62812;55.188;61.302;2022-09-12T11:41:59;2.80;;;1.08;;
74375;SDS011;62812;55.188;61.302;2022-09-12T11:44:39;4.43;;;1.33;;
74375;SDS011;62812;55.188;61.302;2022-09-12T11:48:12;8.90;;;1.85;;
74375;SDS011;62812;55.188;61.302;2022-09-12T11:50:51;3.67;;;1.35;;
74375;SDS011;62812;55.188;61.302;2022-09-12T11:53:28;5.18;;;1.80;;
74375;SDS011;62812;55.188;61.302;2022-09-12T11:59:42;4.75;;;1.88;;
74375;SDS011;62812;55.188;61.302;2022-09-12T12:06:09;4.20;;;1.60;;
74375;SDS011;62812;55.188;61.302;2022-09-12T12:09:01;5.40;;;2.13;;
74375;SDS011;62812;55.188;61.302;2022-09-12T12:15:30;11.73;;;6.75;;
74375;SDS011;62812;55.188;61.302;2022-09-12T12:18:27;16.67;;;11.32;;
74375;SDS011;62812;55.188;61.302;2022-09-12T12:21:32;20.45;;;10.70;;
74375;SDS011;62812;55.188;61.302;2022-09-12T12:25:36;20.10;;;11.15;;
74375;SDS011;62812;55.188;61.302;2022-09-12T12:32:23;9.20;;;3.70;;
74375;SDS011;62812;55.188;61.302;2022-09-12T12:47:19;5.60;;;2.67;;
74375;SDS011;62812;55.188;61.302;2022-09-12T12:50:04;6.28;;;2.45;;
74375;SDS011;62812;55.188;61.302;2022-09-12T12:52:46;5.30;;;2.25;;
74375;SDS011;62812;55.188;61.302;2022-09-12T12:55:20;5.75;;;2.40;;
74375;SDS011;62812;55.188;61.302;2022-09-12T12:58:22;6.40;;;2.67;;
74375;SDS011;62812;55.188;61.302;2022-09-12T13:01:03;8.98;;;3.40;;
74375;SDS011;62812;55.188;61.302;2022-09-12T13:03:38;10.65;;;3.95;;
74375;SDS011;62812;55.188;61.302;2022-09-12T13:06:26;13.75;;;4.35;;
74375;SDS011;62812;55.188;61.302;2022-09-12T13:09:03;8.30;;;4.10;;
74375;SDS011;62812;55.188;61.302;2022-09-12T13:12:36;11.23;;;6.57;;
74375;SDS011;62812;55.188;61.302;2022-09-12T13:15:42;12.90;;;6.75;;
74375;SDS011;62812;55.188;61.302;2022-09-12T13:18:40;17.13;;;6.55;;
74375;SDS011;62812;55.188;61.302;2022-09-12T13:21:34;9.60;;;4.53;;
74375;SDS011;62812;55.188;61.302;2022-09-12T13:27:54;14.48;;;6.80;;
74375;SDS011;62812;55.188;61.302;2022-09-12T13:30:29;12.82;;;6.13;;
74375;SDS011;62812;55.188;61.302;2022-09-12T13:33:03;13.68;;;5.60;;
74375;SDS011;62812;55.188;61.302;2022-09-12T13:35:56;12.70;;;5.45;;
74375;SDS011;62812;55.188;61.302;2022-09-12T13:38:40;13.35;;;5.55;;
74375;SDS011;62812;55.188;61.302;2022-09-12T13:41:34;10.55;;;4.97;;
74375;SDS011;62812;55.188;61.302;2022-09-12T13:44:17;12.93;;;5.38;;
74375;SDS011;62812;55.188;61.302;2022-09-12T13:46:49;11.02;;;5.13;;
74375;SDS011;62812;55.188;61.302;2022-09-12T13:49:21;13.27;;;4.57;;
74375;SDS011;62812;55.188;61.302;2022-09-12T13:52:29;24.48;;;13.50;;
74375;SDS011;62812;55.188;61.302;2022-09-12T13:55:12;10.18;;;4.43;;
74375;SDS011;62812;55.188;61.302;2022-09-12T14:01:13;9.15;;;3.28;;
74375;SDS011;62812;55.188;61.302;2022-09-12T14:03:53;9.13;;;3.35;;
74375;SDS011;62812;55.188;61.302;2022-09-12T14:16:28;8.55;;;3.20;;
74375;SDS011;62812;55.188;61.302;2022-09-12T14:19:25;7.50;;;3.05;;
74375;SDS011;62812;55.188;61.302;2022-09-12T14:23:24;12.02;;;3.60;;
74375;SDS011;62812;55.188;61.302;2022-09-12T14:27:23;6.78;;;2.45;;
74375;SDS011;62812;55.188;61.302;2022-09-12T14:30:20;6.20;;;2.75;;
74375;SDS011;62812;55.188;61.302;2022-09-12T14:33:16;7.00;;;2.70;;
74375;SDS011;62812;55.188;61.302;2022-09-12T14:41:40;6.25;;;2.25;;
74375;SDS011;62812;55.188;61.302;2022-09-12T14:44:18;6.25;;;2.25;;
74375;SDS011;62812;55.188;61.302;2022-09-12T14:47:10;6.60;;;2.40;;
74375;SDS011;62812;55.188;61.302;2022-09-12T14:49:59;5.63;;;2.83;;
74375;SDS011;62812;55.188;61.302;2022-09-12T14:52:39;6.57;;;2.80;;
74375;SDS011;62812;55.188;61.302;2022-09-12T15:01:27;6.13;;;2.72;;
74375;SDS011;62812;55.188;61.302;2022-09-12T15:03:51;8.45;;;2.40;;
74375;SDS011;62812;55.188;61.302;2022-09-12T15:06:34;6.15;;;2.35;;
74375;SDS011;62812;55.188;61.302;2022-09-12T15:09:20;5.85;;;3.28;;
74375;SDS011;62812;55.188;61.302;2022-09-12T15:11:55;8.10;;;2.75;;
74375;SDS011;62812;55.188;61.302;2022-09-12T15:14:48;7.55;;;2.60;;
74375;SDS011;62812;55.188;61.302;2022-09-12T15:17:27;6.00;;;2.65;;
74375;SDS011;62812;55.188;61.302;2022-09-12T15:20:40;6.13;;;2.05;;
74375;SDS011;62812;55.188;61.302;2022-09-12T15:27:42;7.22;;;2.47;;
74375;SDS011;62812;55.188;61.302;2022-09-12T15:31:14;6.35;;;2.97;;
74375;SDS011;62812;55.188;61.302;2022-09-12T15:34:03;6.53;;;2.58;;
74375;SDS011;62812;55.188;61.302;2022-09-12T15:39:19;9.98;;;2.75;;
74375;SDS011;62812;55.188;61.302;2022-09-12T16:03:58;6.97;;;2.85;;
74375;SDS011;62812;55.188;61.302;2022-09-12T16:07:08;8.10;;;3.42;;
74375;SDS011;62812;55.188;61.302;2022-09-12T16:10:43;7.35;;;2.88;;
74375;SDS011;62812;55.188;61.302;2022-09-12T16:13:14;8.07;;;3.97;;
74375;SDS011;62812;55.188;61.302;2022-09-12T16:16:29;10.52;;;3.72;;
74375;SDS011;62812;55.188;61.302;2022-09-12T16:20:09;8.95;;;4.25;;
74375;SDS011;62812;55.188;61.302;2022-09-12T16:22:55;8.10;;;4.13;;
74375;SDS011;62812;55.188;61.302;2022-09-12T16:29:52;14.10;;;4.70;;
74375;SDS011;62812;55.188;61.302;2022-09-12T16:36:29;9.90;;;4.80;;
74375;SDS011;62812;55.188;61.302;2022-09-12T16:39:02;13.55;;;6.20;;
74375;SDS011;62812;55.188;61.302;2022-09-12T16:41:44;11.55;;;5.47;;
74375;SDS011;62812;55.188;61.302;2022-09-12T16:44:16;11.85;;;5.65;;
74375;SDS011;62812;55.188;61.302;2022-09-12T16:46:52;12.13;;;5.85;;
74375;SDS011;62812;55.188;61.302;2022-09-12T16:49:23;14.10;;;6.05;;
74375;SDS011;62812;55.188;61.302;2022-09-12T16:51:58;18.83;;;8.40;;
74375;SDS011;62812;55.188;61.302;2022-09-12T16:54:47;18.40;;;8.57;;
74375;SDS011;62812;55.188;61.302;2022-09-12T16:59:26;17.45;;;7.60;;
74375;SDS011;62812;55.188;61.302;2022-09-12T17:01:13;21.17;;;8.60;;
74375;SDS011;62812;55.188;61.302;2022-09-12T17:04:18;18.48;;;8.07;;
74375;SDS011;62812;55.188;61.302;2022-09-12T17:09:26;17.70;;;8.30;;
74375;SDS011;62812;55.188;61.302;2022-09-12T17:15:37;19.08;;;7.47;;
74375;SDS011;62812;55.188;61.302;2022-09-12T17:18:44;20.35;;;8.35;;
74375;SDS011;62812;55.188;61.302;2022-09-12T17:25:16;25.70;;;9.70;;
74375;SDS011;62812;55.188;61.302;2022-09-12T17:30:55;26.60;;;8.93;;
74375;SDS011;62812;55.188;61.302;2022-09-12T17:33:01;26.25;;;9.40;;
74375;SDS011;62812;55.188;61.302;2022-09-12T17:35:58;24.55;;;10.45;;
74375;SDS011;62812;55.188;61.302;2022-09-12T17:39:11;21.83;;;8.82;;
74375;SDS011;62812;55.188;61.302;2022-09-12T17:42:45;22.08;;;8.82;;
74375;SDS011;62812;55.188;61.302;2022-09-12T17:50:26;17.35;;;7.05;;
74375;SDS011;62812;55.188;61.302;2022-09-12T17:53:23;14.73;;;6.10;;
74375;SDS011;62812;55.188;61.302;2022-09-12T17:57:22;20.25;;;7.88;;
74375;SDS011;62812;55.188;61.302;2022-09-12T18:10:53;15.75;;;6.38;;
74375;SDS011;62812;55.188;61.302;2022-09-12T18:14:06;18.83;;;6.40;;
74375;SDS011;62812;55.188;61.302;2022-09-12T18:16:33;14.40;;;6.00;;
74375;SDS011;62812;55.188;61.302;2022-09-12T18:26:46;13.98;;;6.10;;
74375;SDS011;62812;55.188;61.302;2022-09-12T18:29:22;15.65;;;6.07;;
74375;SDS011;62812;55.188;61.302;2022-09-12T18:31:50;11.95;;;5.20;;
74375;SDS011;62812;55.188;61.302;2022-09-12T18:34:17;13.00;;;5.50;;
74375;SDS011;62812;55.188;61.302;2022-09-12T18:36:45;12.13;;;5.28;;
74375;SDS011;62812;55.188;61.302;2022-09-12T18:39:16;14.18;;;5.47;;
74375;SDS011;62812;55.188;61.302;2022-09-12T18:41:45;13.70;;;4.88;;
74375;SDS011;62812;55.188;61.302;2022-09-12T18:44:50;14.07;;;5.57;;
74375;SDS011;62812;55.188;61.302;2022-09-12T18:47:19;14.07;;;5.90;;
74375;SDS011;62812;55.188;61.302;2022-09-12T18:49:46;12.02;;;5.72;;
74375;SDS011;62812;55.188;61.302;2022-09-12T18:52:15;12.90;;;6.03;;
74375;SDS011;62812;55.188;61.302;2022-09-12T18:54:52;13.85;;;5.82;;
74375;SDS011;62812;55.188;61.302;2022-09-12T19:00:40;13.32;;;5.30;;
74375;SDS011;62812;55.188;61.302;2022-09-12T19:03:32;9.90;;;4.80;;
74375;SDS011;62812;55.188;61.302;2022-09-12T19:06:08;13.30;;;5.78;;
74375;SDS011;62812;55.188;61.302;2022-09-12T19:08:37;14.95;;;7.80;;
74375;SDS011;62812;55.188;61.302;2022-09-12T19:11:06;14.00;;;6.80;;
74375;SDS011;62812;55.188;61.302;2022-09-12T19:13:54;12.68;;;6.65;;
74375;SDS011;62812;55.188;61.302;2022-09-12T19:16:28;11.45;;;5.63;;
74375;SDS011;62812;55.188;61.302;2022-09-12T19:18:56;11.35;;;5.18;;
74375;SDS011;62812;55.188;61.302;2022-09-12T19:21:24;9.70;;;5.07;;
74375;SDS011;62812;55.188;61.302;2022-09-12T19:23:56;14.80;;;5.35;;
74375;SDS011;62812;55.188;61.302;2022-09-12T19:26:25;11.85;;;5.93;;
74375;SDS011;62812;55.188;61.302;2022-09-12T19:28:58;12.27;;;5.20;;
74375;SDS011;62812;55.188;61.302;2022-09-12T19:31:34;11.30;;;5.38;;
74375;SDS011;62812;55.188;61.302;2022-09-12T19:34:12;10.90;;;5.28;;
74375;SDS011;62812;55.188;61.302;2022-09-12T19:36:51;11.02;;;5.25;;
74375;SDS011;62812;55.188;61.302;2022-09-12T19:39:19;12.13;;;5.30;;
74375;SDS011;62812;55.188;61.302;2022-09-12T19:41:47;11.20;;;5.47;;
74375;SDS011;62812;55.188;61.302;2022-09-12T19:44:14;9.88;;;5.07;;
74375;SDS011;62812;55.188;61.302;2022-09-12T19:46:40;11.25;;;5.38;;
74375;SDS011;62812;55.188;61.302;2022-09-12T19:49:08;10.80;;;4.95;;
74375;SDS011;62812;55.188;61.302;2022-09-12T19:51:39;11.65;;;4.85;;
74375;SDS011;62812;55.188;61.302;2022-09-12T19:54:08;11.55;;;4.63;;
74375;SDS011;62812;55.188;61.302;2022-09-12T19:56:37;8.57;;;4.15;;
74375;SDS011;62812;55.188;61.302;2022-09-12T19:59:05;8.95;;;4.40;;
74375;SDS011;62812;55.188;61.302;2022-09-12T20:01:35;10.18;;;4.60;;
74375;SDS011;62812;55.188;61.302;2022-09-12T20:04:02;12.65;;;5.18;;
74375;SDS011;62812;55.188;61.302;2022-09-12T20:06:29;12.35;;;4.93;;
74375;SDS011;62812;55.188;61.302;2022-09-12T20:08:55;9.88;;;5.10;;
74375;SDS011;62812;55.188;61.302;2022-09-12T20:11:23;9.73;;;4.50;;
74375;SDS011;62812;55.188;61.302;2022-09-12T20:13:50;9.18;;;5.10;;
74375;SDS011;62812;55.188;61.302;2022-09-12T20:16:19;10.63;;;5.20;;